Time;durP1;ratioP1;P1;durP2;ratioP2;P2;SDS_P1;SDS_P2;PMS_P1;PMS_P2;Temp;Humidity;BMP_temperature;BMP_pressure;BME280_temperature;BME280_humidity;BME280_pressure;Samples;Min_cycle;Max_cycle;Signal;HPM_P1;HPM_P2
2021/05/14 00:02:03;;;;;;;6.42;3.22;;;;;;;15.84;62.52;99804.97;1740390;80;21049;-68
2021/05/14 00:04:28;;;;;;;5.58;2.90;;;;;;;15.82;62.39;99813.57;1754698;80;21088;-68
2021/05/14 00:06:56;;;;;;;7.30;3.12;;;;;;;15.81;62.37;99810.61;1758028;80;21088;-68
2021/05/14 00:09:23;;;;;;;8.83;3.72;;;;;;;15.79;62.51;99813.43;1756970;80;21104;-68
2021/05/14 00:11:49;;;;;;;6.00;3.17;;;;;;;15.75;62.43;99812.06;1757053;80;21089;-68
2021/05/14 00:14:16;;;;;;;6.22;3.40;;;;;;;15.69;62.63;99806.14;1762151;80;21052;-67
2021/05/14 00:16:42;;;;;;;5.53;3.33;;;;;;;15.65;62.82;99812.77;1741894;80;21104;-68
2021/05/14 00:19:09;;;;;;;6.42;3.12;;;;;;;15.61;63.00;99809.63;1745613;80;21057;-68
2021/05/14 00:21:37;;;;;;;6.78;3.15;;;;;;;15.62;63.00;99807.31;1758537;80;21053;-68
2021/05/14 00:24:06;;;;;;;5.50;2.55;;;;;;;15.68;62.94;99810.59;1756004;80;21555;-68
2021/05/14 00:26:33;;;;;;;6.37;3.10;;;;;;;15.73;62.85;99807.44;1753837;80;21049;-68
2021/05/14 00:28:59;;;;;;;6.05;3.77;;;;;;;15.74;62.77;99805.95;1698352;83;21066;-67
2021/05/14 00:31:26;;;;;;;6.00;3.45;;;;;;;15.75;62.91;99803.66;1758346;80;21080;-67
2021/05/14 00:33:53;;;;;;;5.28;2.92;;;;;;;15.74;62.97;99804.62;1737379;80;21080;-68
2021/05/14 00:36:20;;;;;;;6.47;3.65;;;;;;;15.71;62.92;99799.65;1760666;80;21073;-67
2021/05/14 00:38:46;;;;;;;6.92;3.30;;;;;;;15.68;63.04;99796.52;1755997;80;21100;-67
2021/05/14 00:41:13;;;;;;;6.92;4.15;;;;;;;15.63;63.13;99797.02;1700467;83;21097;-67
2021/05/14 00:43:39;;;;;;;6.00;3.30;;;;;;;15.60;63.02;99788.92;1705866;83;21141;-67
2021/05/14 00:46:05;;;;;;;6.92;3.50;;;;;;;15.58;63.11;99790.07;1758925;80;21155;-67
2021/05/14 00:48:35;;;;;;;8.88;3.40;;;;;;;15.57;63.04;99794.55;1672006;85;21085;-68
2021/05/14 00:51:00;;;;;;;6.40;2.85;;;;;;;15.53;63.13;99790.61;1724268;81;21108;-67
2021/05/14 00:53:26;;;;;;;5.30;2.62;;;;;;;15.56;62.99;99790.75;1753968;80;21188;-67
2021/05/14 00:55:53;;;;;;;5.45;3.02;;;;;;;15.64;62.82;99789.91;1719671;82;21076;-70
2021/05/14 00:58:19;;;;;;;7.92;3.10;;;;;;;15.71;62.76;99785.57;1757034;80;21104;-69
2021/05/14 01:00:46;;;;;;;5.92;3.25;;;;;;;15.73;62.73;99785.71;1761150;80;21105;-70
2021/05/14 01:03:15;;;;;;;6.50;4.08;;;;;;;15.73;62.73;99785.71;1760859;80;21093;-70
2021/05/14 01:05:42;;;;;;;7.83;3.50;;;;;;;15.71;62.75;99786.39;1738915;80;21096;-68
2021/05/14 01:08:09;;;;;;;5.47;2.90;;;;;;;15.69;62.80;99776.97;1734865;80;21089;-68
2021/05/14 01:10:36;;;;;;;7.50;3.70;;;;;;;15.68;62.83;99779.28;1689977;81;21073;-68
2021/05/14 01:13:02;;;;;;;7.60;3.85;;;;;;;15.66;62.88;99779.95;1759062;81;21076;-68
2021/05/14 01:15:29;;;;;;;8.23;4.20;;;;;;;15.64;62.91;99781.95;1750297;80;21484;-68
2021/05/14 01:17:56;;;;;;;7.67;3.52;;;;;;;15.58;63.07;99776.34;1751293;81;21164;-68
2021/05/14 01:20:29;;;;;;;7.45;3.15;;;;;;;15.54;63.14;99782.95;1751504;80;21069;-68
2021/05/14 01:22:56;;;;;;;5.50;3.02;;;;;;;15.54;62.90;99784.28;1755200;80;21623;-69
2021/05/14 01:25:22;;;;;;;5.85;3.42;;;;;;;15.62;62.83;99780.80;1756568;81;21616;-69
2021/05/14 01:27:49;;;;;;;6.50;3.33;;;;;;;15.65;62.73;99780.94;1759254;81;21085;-70
2021/05/14 01:30:16;;;;;;;6.53;3.15;;;;;;;15.63;62.78;99777.63;1754377;80;21723;-70
2021/05/14 01:32:43;;;;;;;5.97;3.08;;;;;;;15.61;62.77;99774.64;1754979;81;21112;-69
2021/05/14 01:35:10;;;;;;;7.70;3.45;;;;;;;15.59;62.76;99771.34;1751378;80;21128;-69
2021/05/14 01:37:40;;;;;;;6.87;3.67;;;;;;;15.57;62.71;99777.32;1724801;81;21156;-69
2021/05/14 01:40:08;;;;;;;7.25;3.60;;;;;;;15.54;62.71;99773.68;1753183;81;21965;-69
2021/05/14 01:42:44;;;;;;;6.55;3.37;;;;;;;15.51;62.70;99770.55;1716938;81;22448;-69
2021/05/14 01:45:12;;;;;;;5.95;3.40;;;;;;;15.48;62.53;99770.88;1721092;81;21072;-69
2021/05/14 01:47:39;;;;;;;9.23;3.90;;;;;;;15.41;62.60;99764.91;1750365;81;21054;-69
2021/05/14 01:50:08;;;;;;;6.25;3.12;;;;;;;15.37;62.65;99767.59;1759668;80;21069;-69
2021/05/14 01:52:35;;;;;;;6.60;3.02;;;;;;;15.37;62.59;99763.61;1754895;80;22478;-69
2021/05/14 01:55:03;;;;;;;6.05;2.80;;;;;;;15.46;62.44;99764.92;1755959;81;21124;-69
2021/05/14 01:57:30;;;;;;;5.95;3.42;;;;;;;15.52;62.32;99764.25;1756551;80;21085;-67
2021/05/14 01:59:57;;;;;;;7.15;3.90;;;;;;;15.53;62.22;99764.09;1758367;80;21512;-67
2021/05/14 02:02:23;;;;;;;8.75;3.87;;;;;;;15.51;62.10;99766.06;1729633;81;21182;-67
2021/05/14 02:04:50;;;;;;;6.35;3.80;;;;;;;15.49;62.01;99769.89;1749410;81;21849;-67
2021/05/14 02:07:16;;;;;;;5.97;3.45;;;;;;;15.44;62.16;99768.25;1753236;80;21122;-67
2021/05/14 02:09:43;;;;;;;8.78;4.37;;;;;;;15.42;62.11;99763.11;1732472;82;21143;-67
2021/05/14 02:12:10;;;;;;;6.60;3.77;;;;;;;15.41;62.21;99765.42;1737423;80;21045;-67
2021/05/14 02:14:36;;;;;;;7.35;4.15;;;;;;;15.37;62.13;99762.29;1739378;82;21124;-66
2021/05/14 02:17:05;;;;;;;7.75;3.58;;;;;;;15.34;62.12;99755.18;1740542;80;21099;-67
2021/05/14 02:19:31;;;;;;;7.12;4.45;;;;;;;15.31;62.14;99760.81;1708690;82;21202;-66
2021/05/14 02:21:58;;;;;;;7.72;4.25;;;;;;;15.28;62.18;99760.66;1733213;80;21083;-69
2021/05/14 02:24:24;;;;;;;7.47;3.37;;;;;;;15.24;62.17;99757.50;1734343;81;21159;-69
2021/05/14 02:26:50;;;;;;;5.97;3.30;;;;;;;15.29;62.15;99749.56;1739774;80;21140;-69
2021/05/14 02:29:18;;;;;;;6.03;3.42;;;;;;;15.37;62.07;99757.50;1738570;80;21126;-69
2021/05/14 02:31:44;;;;;;;6.37;3.92;;;;;;;15.42;61.86;99758.63;1738155;80;21136;-69
2021/05/14 02:34:11;;;;;;;8.25;4.15;;;;;;;15.44;61.71;99757.14;1717039;82;21109;-66
2021/05/14 02:36:37;;;;;;;6.75;3.95;;;;;;;15.42;61.73;99752.52;1739886;80;21159;-66
2021/05/14 02:39:05;;;;;;;6.55;4.03;;;;;;;15.42;61.71;99752.52;1728756;80;21136;-67
2021/05/14 02:41:32;;;;;;;8.20;4.87;;;;;;;15.41;61.70;99750.34;1730036;80;21084;-67
2021/05/14 02:43:58;;;;;;;7.42;4.85;;;;;;;15.40;61.68;99748.70;1730879;80;22368;-67
2021/05/14 02:46:24;;;;;;;9.10;4.53;;;;;;;15.38;61.74;99750.70;1736214;80;21137;-66
2021/05/14 02:48:51;;;;;;;7.70;4.90;;;;;;;15.35;61.69;99745.73;1735241;81;21162;-67
2021/05/14 02:51:17;;;;;;;6.97;4.60;;;;;;;15.33;61.77;99742.43;1728998;80;21167;-67
2021/05/14 02:53:44;;;;;;;10.13;5.17;;;;;;;15.34;61.72;99748.55;1732113;80;21131;-67
2021/05/14 02:56:11;;;;;;;7.33;5.08;;;;;;;15.34;61.76;99749.37;1735233;80;21088;-67
2021/05/14 02:58:37;;;;;;;7.30;4.20;;;;;;;15.33;61.83;99753.03;1741055;80;22642;-67
2021/05/14 03:01:04;;;;;;;7.35;3.98;;;;;;;15.38;61.70;99745.88;1740964;80;21115;-67
2021/05/14 03:03:30;;;;;;;6.87;4.50;;;;;;;15.50;61.56;99748.99;1711662;82;21583;-66
2021/05/14 03:05:56;;;;;;;10.85;4.80;;;;;;;15.56;61.43;99749.65;1737420;82;21175;-64
2021/05/14 03:08:23;;;;;;;12.23;4.53;;;;;;;15.58;61.33;99743.66;1710708;80;21045;-63
2021/05/14 03:10:49;;;;;;;9.28;5.12;;;;;;;15.59;61.09;99740.03;1731021;80;21133;-65
2021/05/14 03:13:16;;;;;;;8.90;5.15;;;;;;;15.59;61.08;99743.50;1732598;80;21127;-63
2021/05/14 03:15:42;;;;;;;8.73;5.65;;;;;;;15.58;61.11;99740.53;1715638;80;21221;-66
2021/05/14 03:18:10;;;;;;;8.23;5.05;;;;;;;15.55;61.05;99746.17;1739638;80;21082;-61
2021/05/14 03:23:11;;;;;;;8.70;5.17;;;;;;;15.51;61.16;99749.33;1868454;74;23169;-76
2021/05/14 03:25:38;;;;;;;10.53;5.67;;;;;;;15.40;61.34;99751.35;1843075;77;21325;-67
2021/05/14 03:28:04;;;;;;;8.85;4.83;;;;;;;15.38;61.60;99749.37;1847518;75;21067;-67
2021/05/14 03:30:31;;;;;;;9.15;5.03;;;;;;;15.38;61.44;99753.35;1847532;75;21712;-68
2021/05/14 03:32:58;;;;;;;9.28;5.17;;;;;;;15.41;61.65;99750.84;1805002;78;21068;-68
2021/05/14 03:35:24;;;;;;;6.78;4.05;;;;;;;15.47;61.53;99738.75;1769729;78;21029;-68
2021/05/14 03:37:51;;;;;;;8.75;4.83;;;;;;;15.59;61.29;99747.47;1797320;78;21075;-68
2021/05/14 03:42:46;;;;;;;7.92;4.80;;;;;;;15.76;60.96;99750.92;1792155;78;20984;-66
2021/05/14 03:45:14;;;;;;;8.63;5.55;;;;;;;15.81;60.93;99748.27;1797918;78;21083;-65
2021/05/14 03:47:41;;;;;;;11.45;6.25;;;;;;;15.85;60.67;99756.20;1750202;80;21135;-65
2021/05/14 03:50:10;;;;;;;10.48;6.03;;;;;;;15.86;60.63;99746.74;1770202;78;21360;-70
2021/05/14 03:52:36;;;;;;;9.78;6.12;;;;;;;15.88;60.59;99750.55;1799413;78;21138;-66
2021/05/14 03:55:04;;;;;;;10.25;5.65;;;;;;;15.87;60.67;99748.89;1803619;77;21111;-65
2021/05/14 03:57:30;;;;;;;13.48;5.20;;;;;;;15.87;60.60;99744.91;1804513;78;21082;-70
2021/05/14 03:59:57;;;;;;;8.35;4.90;;;;;;;15.83;60.59;99744.94;1777670;80;21084;-69
2021/05/14 04:02:23;;;;;;;9.28;5.72;;;;;;;15.82;60.41;99750.75;1803461;78;21093;-68
2021/05/14 04:04:50;;;;;;;9.78;5.67;;;;;;;15.79;60.66;99749.77;1782168;79;21366;-69
2021/05/14 04:07:19;;;;;;;8.25;5.53;;;;;;;15.77;60.62;99745.95;1787329;78;21123;-69
2021/05/14 04:10:04;;;;;;;13.20;5.28;;;;;;;15.75;60.78;99736.47;1750544;79;21115;-69
2021/05/14 04:15:09;;;;;;;9.75;5.28;;;;;;;15.92;60.78;99736.77;1788195;79;22351;-68
2021/05/14 04:17:35;;;;;;;8.88;5.17;;;;;;;15.99;60.66;99730.28;1782246;79;21107;-68
2021/05/14 04:20:03;;;;;;;8.38;5.30;;;;;;;16.01;60.66;99723.47;1737989;79;21084;-69
2021/05/14 04:22:29;;;;;;;10.80;5.58;;;;;;;16.01;60.56;99721.63;1785449;78;21068;-67
2021/05/14 04:24:57;;;;;;;8.98;4.85;;;;;;;16.05;60.57;99724.25;1763152;79;21069;-69
2021/05/14 04:27:24;;;;;;;8.40;4.92;;;;;;;16.09;60.38;99730.88;1758593;80;21093;-69
2021/05/14 04:29:51;;;;;;;7.92;5.60;;;;;;;16.13;60.35;99736.15;1763391;80;21186;-64
2021/05/14 04:32:17;;;;;;;9.00;4.80;;;;;;;16.16;60.27;99729.68;1764827;80;21089;-63
2021/05/14 04:34:45;;;;;;;9.75;4.40;;;;;;;16.20;60.17;99730.16;1762975;79;21162;-65
2021/05/14 04:37:13;;;;;;;7.78;4.62;;;;;;;16.26;60.31;99729.46;1762450;80;21131;-71
2021/05/14 04:39:42;;;;;;;7.92;4.92;;;;;;;16.31;60.22;99727.10;1770646;79;21704;-70
2021/05/14 04:42:09;;;;;;;10.20;4.78;;;;;;;16.31;59.99;99723.12;1750757;80;21296;-67
2021/05/14 04:44:36;;;;;;;8.35;4.55;;;;;;;16.32;59.81;99719.44;1756243;79;21188;-72
2021/05/14 04:47:03;;;;;;;6.22;3.50;;;;;;;16.36;59.80;99718.11;1764601;80;21064;-69
2021/05/14 04:49:29;;;;;;;7.12;4.92;;;;;;;16.45;59.54;99720.20;1763494;80;21653;-65
2021/05/14 04:51:56;;;;;;;8.45;5.28;;;;;;;16.49;59.57;99718.34;1738957;80;21120;-67
2021/05/14 04:54:22;;;;;;;8.30;4.45;;;;;;;16.51;59.68;99718.98;1755132;79;21677;-65
2021/05/14 04:56:48;;;;;;;6.80;4.20;;;;;;;16.53;59.63;99716.97;1767774;80;21061;-63
2021/05/14 04:59:15;;;;;;;9.10;5.03;;;;;;;16.53;59.96;99714.83;1769428;80;21123;-66
2021/05/14 05:01:41;;;;;;;8.23;4.33;;;;;;;16.51;60.00;99709.69;1747753;80;21610;-69
2021/05/14 05:04:07;;;;;;;8.73;4.80;;;;;;;16.52;59.78;99708.70;1764299;78;21171;-67
2021/05/14 05:06:34;;;;;;;10.23;5.58;;;;;;;16.55;59.76;99711.48;1768559;80;22709;-71
2021/05/14 05:09:01;;;;;;;10.30;4.87;;;;;;;16.59;59.74;99707.97;1773303;78;21402;-71
2021/05/14 05:11:29;;;;;;;7.42;4.58;;;;;;;16.61;59.66;99701.97;1760799;80;21465;-69
2021/05/14 05:13:55;;;;;;;8.15;4.67;;;;;;;16.65;59.70;99701.95;1752415;78;21103;-70
2021/05/14 05:16:22;;;;;;;9.60;3.77;;;;;;;16.67;59.39;99699.93;1735404;80;21135;-69
2021/05/14 05:18:51;;;;;;;6.83;3.80;;;;;;;16.69;59.26;99696.59;1768642;78;21150;-69
2021/05/14 05:21:17;;;;;;;7.65;4.28;;;;;;;16.76;59.14;99702.01;1762834;80;21060;-69
2021/05/14 05:23:44;;;;;;;7.50;3.60;;;;;;;16.87;58.76;99694.46;1754709;79;21152;-70
2021/05/14 05:26:10;;;;;;;13.00;4.70;;;;;;;17.07;58.24;99700.59;1754955;80;21081;-70
2021/05/14 05:28:38;;;;;;;8.13;4.80;;;;;;;17.21;58.43;99699.77;1761990;79;21113;-71
2021/05/14 05:31:05;;;;;;;9.95;4.60;;;;;;;17.32;58.05;99700.34;1763408;79;21122;-69
2021/05/14 05:33:31;;;;;;;9.28;4.50;;;;;;;17.43;57.79;99690.06;1766554;79;21620;-69
2021/05/14 05:35:58;;;;;;;8.18;3.77;;;;;;;17.54;57.07;99690.61;1765919;79;21584;-69
2021/05/14 05:38:25;;;;;;;9.03;4.30;;;;;;;17.62;57.00;99687.33;1735277;80;20992;-69
2021/05/14 05:40:51;;;;;;;8.78;4.47;;;;;;;17.70;56.62;99682.91;1761464;79;21213;-70
2021/05/14 05:43:18;;;;;;;8.30;3.70;;;;;;;17.81;56.18;99687.23;1762966;80;21473;-73
2021/05/14 05:45:45;;;;;;;7.47;3.58;;;;;;;17.88;55.83;99691.86;1761239;80;21574;-74
2021/05/14 05:48:12;;;;;;;8.03;3.62;;;;;;;17.96;55.34;99690.41;1758829;79;21139;-67
2021/05/14 05:50:39;;;;;;;6.17;3.33;;;;;;;17.97;55.12;99686.72;1760435;80;21869;-66
2021/05/14 05:53:07;;;;;;;9.85;4.03;;;;;;;17.98;54.79;99687.05;1760493;79;21150;-73
2021/05/14 05:55:34;;;;;;;7.37;3.92;;;;;;;17.98;55.33;99679.88;1753156;79;21140;-68
2021/05/14 05:58:11;;;;;;;6.78;3.90;;;;;;;18.03;55.59;99683.83;1764005;79;21572;-66
2021/05/14 06:00:38;;;;;;;8.58;3.80;;;;;;;18.06;55.39;99678.95;1760328;80;21612;-66
2021/05/14 06:03:07;;;;;;;8.23;3.87;;;;;;;18.10;55.35;99672.22;1755871;79;21605;-68
2021/05/14 06:05:33;;;;;;;7.72;4.33;;;;;;;18.14;55.03;99661.53;1733958;81;21651;-67
2021/05/14 06:08:00;;;;;;;8.30;4.20;;;;;;;18.20;55.01;99658.60;1734336;81;21258;-72
2021/05/14 06:10:26;;;;;;;8.45;3.80;;;;;;;18.25;54.75;99660.70;1762086;79;21104;-67
2021/05/14 06:12:53;;;;;;;6.87;3.62;;;;;;;18.28;54.62;99658.99;1761899;79;21077;-67
2021/05/14 06:15:20;;;;;;;6.55;3.37;;;;;;;18.31;54.25;99666.09;1760618;79;21056;-62
2021/05/14 06:17:47;;;;;;;6.53;3.62;;;;;;;18.34;54.38;99664.38;1768722;80;21083;-68
2021/05/14 06:20:17;;;;;;;6.42;3.85;;;;;;;18.36;53.91;99667.67;1737928;81;22363;-64
2021/05/14 06:22:43;;;;;;;7.55;4.20;;;;;;;18.39;54.28;99671.78;1733340;81;21642;-63
2021/05/14 06:25:10;;;;;;;6.60;3.90;;;;;;;18.38;54.26;99666.97;1762272;81;21122;-64
2021/05/14 06:27:37;;;;;;;7.75;3.83;;;;;;;18.41;54.61;99658.27;1761462;79;21699;-66
2021/05/14 06:30:05;;;;;;;6.90;3.47;;;;;;;18.45;54.17;99662.22;1738688;81;21195;-65
2021/05/14 06:32:31;;;;;;;7.30;3.67;;;;;;;18.49;54.02;99663.47;1757925;79;21626;-66
2021/05/14 06:34:57;;;;;;;8.55;3.35;;;;;;;18.51;53.99;99650.80;1764129;80;21148;-64
2021/05/14 06:37:24;;;;;;;8.18;3.30;;;;;;;18.57;54.19;99655.34;1764660;79;21126;-64
2021/05/14 06:39:50;;;;;;;6.53;3.37;;;;;;;18.62;53.71;99652.92;1741542;79;21055;-66
2021/05/14 06:42:17;;;;;;;8.50;3.95;;;;;;;18.67;53.75;99655.02;1788953;78;21072;-66
2021/05/14 06:44:44;;;;;;;9.70;3.80;;;;;;;18.75;53.56;99654.35;1758312;79;21144;-66
2021/05/14 06:47:10;;;;;;;9.33;3.80;;;;;;;18.84;53.33;99655.05;1759000;79;21646;-67
2021/05/14 06:49:37;;;;;;;8.23;3.42;;;;;;;18.96;53.49;99650.00;1743121;79;21092;-65
2021/05/14 06:52:04;;;;;;;7.08;3.22;;;;;;;19.09;53.27;99643.42;1761084;79;21181;-64
2021/05/14 06:54:31;;;;;;;6.10;3.67;;;;;;;19.19;52.89;99634.25;1735791;80;21702;-65
2021/05/14 06:56:57;;;;;;;6.75;3.47;;;;;;;19.26;52.25;99633.77;1763144;79;21410;-67
2021/05/14 06:59:26;;;;;;;8.55;3.80;;;;;;;19.31;52.09;99628.66;1728851;79;21869;-65
2021/05/14 07:01:52;;;;;;;5.92;3.20;;;;;;;19.36;52.24;99632.89;1782277;78;21118;-65
2021/05/14 07:04:19;;;;;;;7.72;3.75;;;;;;;19.37;52.21;99630.55;1758436;78;21064;-65
2021/05/14 07:06:46;;;;;;;6.90;3.22;;;;;;;19.42;52.39;99633.44;1755252;80;21114;-65
2021/05/14 07:09:13;;;;;;;6.67;3.15;;;;;;;19.47;52.15;99628.84;1762975;79;21134;-65
2021/05/14 07:11:39;;;;;;;7.72;3.62;;;;;;;19.49;52.01;99626.27;1773755;78;21144;-65
2021/05/14 07:14:06;;;;;;;7.83;3.55;;;;;;;19.52;52.21;99629.07;1785452;78;21032;-65
2021/05/14 07:16:32;;;;;;;10.25;3.40;;;;;;;19.57;51.65;99629.30;1783257;80;21075;-65
2021/05/14 07:18:59;;;;;;;6.87;3.60;;;;;;;19.62;51.78;99628.17;1784593;78;21107;-66
2021/05/14 07:21:25;;;;;;;6.25;3.33;;;;;;;19.68;51.52;99631.88;1780770;78;21060;-69
2021/05/14 07:23:54;;;;;;;6.40;3.42;;;;;;;19.73;51.61;99632.63;1763054;80;21701;-69
2021/05/14 07:26:21;;;;;;;6.12;2.90;;;;;;;19.81;51.34;99629.80;1749136;81;21601;-68
2021/05/14 07:28:47;;;;;;;5.67;3.40;;;;;;;19.91;51.01;99630.75;1733606;81;21040;-66
2021/05/14 07:31:14;;;;;;;6.22;3.20;;;;;;;19.99;51.05;99626.56;1744067;80;21346;-65
2021/05/14 07:33:40;;;;;;;8.90;3.58;;;;;;;20.08;50.51;99623.99;1749632;80;21464;-69
2021/05/14 07:36:07;;;;;;;9.45;2.75;;;;;;;20.14;50.06;99619.67;1745709;81;21096;-68
2021/05/14 07:38:34;;;;;;;5.78;3.00;;;;;;;20.20;50.01;99616.20;1742791;81;21048;-65
2021/05/14 07:41:00;;;;;;;6.12;2.75;;;;;;;20.27;49.67;99613.53;1781306;79;21044;-65
2021/05/14 07:43:26;;;;;;;7.55;2.45;;;;;;;20.39;49.29;99617.22;1739357;80;22479;-68
2021/05/14 07:45:54;;;;;;;4.50;2.05;;;;;;;20.47;47.11;99613.53;1742730;81;21100;-64
2021/05/14 07:48:21;;;;;;;5.95;2.52;;;;;;;20.51;47.16;99612.92;1748019;80;21043;-62
2021/05/14 07:50:51;;;;;;;7.17;2.30;;;;;;;20.53;46.94;99610.05;1747640;80;21064;-60
2021/05/14 07:53:17;;;;;;;6.80;2.98;;;;;;;20.56;47.41;99609.11;1722746;81;21096;-70
2021/05/14 07:55:44;;;;;;;5.15;2.50;;;;;;;20.60;47.58;99609.52;1746225;81;21745;-62
2021/05/14 07:58:10;;;;;;;5.08;2.77;;;;;;;20.66;47.43;99615.41;1725988;81;21087;-63
2021/05/14 08:00:38;;;;;;;7.08;2.55;;;;;;;20.71;47.14;99608.92;1746616;80;21624;-61
2021/05/14 08:03:05;;;;;;;5.53;2.30;;;;;;;20.77;46.42;99609.41;1721016;81;21062;-62
2021/05/14 08:05:31;;;;;;;6.65;2.30;;;;;;;20.80;45.72;99609.52;1742793;80;21334;-61
2021/05/14 08:08:10;;;;;;;5.60;2.77;;;;;;;20.81;45.10;99617.02;1743357;80;21159;-61
2021/05/14 08:10:37;;;;;;;9.35;2.37;;;;;;;20.82;45.21;99613.33;1743446;81;21133;-61
2021/05/14 08:13:03;;;;;;;8.38;2.58;;;;;;;20.80;45.23;99608.19;1737295;81;21115;-62
2021/05/14 08:15:30;;;;;;;7.80;3.08;;;;;;;20.77;45.44;99606.73;1739890;81;21764;-61
2021/05/14 08:17:57;;;;;;;5.58;2.70;;;;;;;20.75;45.46;99610.66;1745812;80;21172;-66
2021/05/14 08:20:23;;;;;;;8.25;2.50;;;;;;;20.74;45.71;99615.69;1721419;81;22378;-66
2021/05/14 08:22:50;;;;;;;6.83;3.70;;;;;;;20.76;46.80;99613.13;1746831;79;21215;-66
2021/05/14 08:25:16;;;;;;;45.10;8.60;;;;;;;20.82;46.92;99616.00;1759385;80;21101;-65
2021/05/14 08:27:43;;;;;;;5.60;2.70;;;;;;;20.88;47.25;99615.98;1754387;80;21100;-63
2021/05/14 08:30:14;;;;;;;5.03;2.55;;;;;;;20.96;45.85;99620.27;1765734;80;21743;-65
2021/05/14 08:32:41;;;;;;;8.58;3.30;;;;;;;20.97;45.17;99621.92;1761824;79;21048;-66
2021/05/14 08:35:08;;;;;;;7.25;2.62;;;;;;;20.99;45.70;99627.87;1768348;80;22374;-67
2021/05/14 08:37:36;;;;;;;7.95;2.40;;;;;;;21.04;45.82;99633.42;1770720;80;20957;-66
2021/05/14 08:40:07;;;;;;;6.78;2.90;;;;;;;21.11;45.77;99633.41;1768109;79;20965;-68
2021/05/14 08:42:39;;;;;;;7.17;2.98;;;;;;;21.18;44.94;99631.52;1757330;80;21023;-67
2021/05/14 08:45:08;;;;;;;6.37;2.90;;;;;;;21.24;45.99;99633.89;1769164;80;21096;-66
2021/05/14 08:47:36;;;;;;;7.67;3.12;;;;;;;21.32;46.29;99632.32;1765075;80;21612;-65
2021/05/14 08:50:04;;;;;;;6.35;2.92;;;;;;;21.41;45.69;99631.56;1782158;79;21072;-64
2021/05/14 08:52:37;;;;;;;6.70;2.45;;;;;;;21.45;44.94;99628.75;1762721;80;20969;-60
2021/05/14 08:55:06;;;;;;;5.47;2.42;;;;;;;21.46;44.83;99633.89;1779991;79;21569;-63
2021/05/14 08:57:32;;;;;;;5.55;2.20;;;;;;;21.47;44.67;99634.23;1782064;80;20961;-66
2021/05/14 08:59:59;;;;;;;4.83;2.15;;;;;;;21.46;43.67;99631.74;1777694;79;21015;-65
2021/05/14 09:02:25;;;;;;;5.33;2.10;;;;;;;21.42;43.65;99629.20;1780532;79;21031;-64
2021/05/14 09:04:51;;;;;;;5.25;2.37;;;;;;;21.39;43.84;99621.06;1776082;79;21492;-67
2021/05/14 09:07:19;;;;;;;5.55;2.50;;;;;;;21.39;42.45;99628.28;1774070;79;21095;-66
2021/05/14 09:10:09;;;;;;;5.53;1.95;;;;;;;21.40;42.80;99622.72;1779931;80;21427;-68
2021/05/14 09:12:40;;;;;;;6.03;2.50;;;;;;;21.44;43.58;99621.25;1763373;80;21124;-68
2021/05/14 09:15:30;;;;;;;4.25;1.70;;;;;;;21.51;43.30;99623.40;1766031;79;21107;-67
2021/05/14 09:18:18;;;;;;;4.95;2.37;;;;;;;21.51;42.56;99620.72;1770926;80;21204;-67
2021/05/14 09:20:57;;;;;;;5.50;2.62;;;;;;;21.50;42.51;99615.58;1762101;80;21622;-69
2021/05/14 09:23:31;;;;;;;6.87;2.52;;;;;;;21.50;42.43;99613.75;1745791;80;21175;-68
2021/05/14 09:26:08;;;;;;;5.40;1.90;;;;;;;21.48;42.30;99610.96;1760872;79;21646;-67
2021/05/14 09:28:40;;;;;;;7.72;2.50;;;;;;;21.46;42.32;99610.33;1760853;80;21096;-67
2021/05/14 09:31:26;;;;;;;4.95;2.35;;;;;;;21.43;42.60;99606.73;1766976;79;21150;-69
2021/05/14 09:33:57;;;;;;;7.55;2.90;;;;;;;21.38;42.77;99600.67;1764511;79;21035;-70
2021/05/14 09:36:29;;;;;;;5.60;2.35;;;;;;;21.29;43.01;99606.80;1783656;78;21575;-69
2021/05/14 09:39:07;;;;;;;4.42;2.20;;;;;;;21.17;43.09;99596.45;1754061;80;21608;-69
2021/05/14 09:41:42;;;;;;;5.55;2.92;;;;;;;21.09;43.33;99599.36;1742513;80;21123;-64
2021/05/14 09:44:21;;;;;;;7.85;4.30;;;;;;;20.94;43.94;99594.26;1756704;80;21104;-65
2021/05/14 09:46:53;;;;;;;8.18;3.90;;;;;;;20.82;45.01;99595.42;1783969;80;21147;-65
2021/05/14 09:49:22;;;;;;;7.22;3.62;;;;;;;20.71;46.19;99608.92;1741864;80;21641;-64
2021/05/14 09:52:09;;;;;;;5.33;2.45;;;;;;;20.58;47.15;99616.40;1774846;79;21503;-65
2021/05/14 09:54:40;;;;;;;6.22;2.45;;;;;;;20.43;48.06;99625.15;1736758;79;21100;-64
2021/05/14 10:00:04;;;;;;;5.58;2.72;;;;;;;19.94;51.51;99631.17;1772137;79;21107;-65
2021/05/14 10:02:38;;;;;;;6.00;2.83;;;;;;;19.71;52.51;99630.67;1763793;79;21100;-65
2021/05/14 10:05:14;;;;;;;6.12;2.60;;;;;;;19.56;53.71;99627.63;1761445;79;21058;-69
2021/05/14 10:07:42;;;;;;;6.30;2.90;;;;;;;19.47;54.63;99632.33;1766533;79;21060;-68
2021/05/14 10:10:11;;;;;;;5.85;2.87;;;;;;;19.41;55.14;99636.30;1768676;79;21628;-69
2021/05/14 10:12:37;;;;;;;6.83;2.72;;;;;;;19.37;55.17;99641.22;1762564;79;21056;-69
2021/05/14 10:15:11;;;;;;;6.83;3.20;;;;;;;19.27;54.59;99638.91;1771132;79;21031;-69
2021/05/14 10:17:42;;;;;;;5.25;2.67;;;;;;;19.19;54.50;99634.25;1740187;80;21223;-70
2021/05/14 10:20:29;;;;;;;7.17;2.72;;;;;;;19.14;54.57;99632.69;1744394;80;21199;-70
2021/05/14 10:22:57;;;;;;;6.62;3.33;;;;;;;19.12;54.54;99634.22;1782696;80;21121;-70
2021/05/14 10:25:47;;;;;;;5.28;2.65;;;;;;;19.12;54.78;99624.89;1780579;80;21091;-70
2021/05/14 10:28:23;;;;;;;6.03;2.98;;;;;;;19.19;54.31;99624.92;1783057;78;21107;-68
2021/05/14 10:31:06;;;;;;;7.53;2.95;;;;;;;19.30;54.28;99627.03;1807707;77;21079;-68
2021/05/14 10:33:55;;;;;;;6.90;2.58;;;;;;;19.45;54.65;99630.87;1776604;78;21178;-66
2021/05/14 10:36:32;;;;;;;5.72;2.77;;;;;;;19.70;55.65;99631.16;1810321;78;21059;-60
2021/05/14 10:39:14;;;;;;;;;;;;;;;19.99;53.60;99625.23;1788763;78;21114;-62
2021/05/14 10:42:06;;;;;;;6.92;2.85;;;;;;;20.22;51.48;99631.01;1818945;78;20291;-67
2021/05/14 10:44:52;;;;;;;7.30;3.08;;;;;;;20.35;50.55;99621.34;1781390;78;21080;-66
2021/05/14 10:47:28;;;;;;;6.33;2.75;;;;;;;20.47;48.37;99626.38;1778920;78;21056;-67
2021/05/14 10:50:04;;;;;;;5.53;3.08;;;;;;;20.59;48.26;99625.23;1781077;80;21095;-67
2021/05/14 10:52:30;;;;;;;6.30;2.87;;;;;;;20.76;48.55;99625.66;1776102;80;21068;-68
2021/05/14 10:54:56;;;;;;;6.35;2.62;;;;;;;20.89;49.20;99630.98;1805512;78;21194;-68
2021/05/14 10:57:48;;;;;;;5.90;2.92;;;;;;;21.05;48.23;99632.40;1748741;79;21657;-65
2021/05/14 11:00:29;;;;;;;7.28;3.22;;;;;;;21.12;46.83;99630.52;1747193;80;21673;-66
2021/05/14 11:03:14;;;;;;;6.83;2.52;;;;;;;21.09;47.48;99619.42;1773855;80;22375;-69
2021/05/14 11:05:48;;;;;;;6.97;3.35;;;;;;;21.09;46.99;99622.09;1784516;78;21115;-60
2021/05/14 11:08:38;;;;;;;5.87;2.87;;;;;;;21.13;48.38;99627.31;1787548;79;21095;-66
2021/05/14 11:11:09;;;;;;;6.25;2.70;;;;;;;21.26;47.62;99620.59;1763342;78;21503;-62
2021/05/14 11:13:37;;;;;;;6.28;2.85;;;;;;;21.41;45.30;99623.00;1782532;78;21075;-62
2021/05/14 11:16:44;;;;;;;7.12;2.70;;;;;;;21.49;46.50;99609.94;1780515;78;21124;-62
2021/05/14 11:19:23;;;;;;;6.87;3.22;;;;;;;21.65;45.94;99608.61;1809102;78;21128;-65
2021/05/14 11:22:24;;;;;;;7.05;2.98;;;;;;;21.85;44.63;99604.48;1769404;78;21182;-64
2021/05/14 11:24:53;;;;;;;5.62;2.50;;;;;;;21.98;44.70;99600.91;1804738;78;21598;-65
2021/05/14 11:27:30;;;;;;;17.20;3.83;;;;;;;22.16;44.77;99594.28;1802627;78;21096;-66
2021/05/14 11:29:59;;;;;;;12.05;4.03;;;;;;;22.36;45.39;99590.13;1794926;77;21597;-67
2021/05/14 11:32:37;;;;;;;4.47;2.17;;;;;;;22.57;43.29;99594.78;1807056;78;21552;-66
2021/05/14 11:35:12;;;;;;;4.28;2.05;;;;;;;22.75;43.75;99588.10;1770295;78;21084;-69
2021/05/14 11:37:56;;;;;;;6.30;2.52;;;;;;;22.93;41.00;99583.28;1808740;78;21421;-65
2021/05/14 11:40:38;;;;;;;4.15;2.10;;;;;;;23.04;40.14;99578.20;1783416;78;21088;-68
2021/05/14 11:43:06;;;;;;;5.30;1.90;;;;;;;23.05;40.26;99582.02;1802934;78;21063;-67
2021/05/14 11:45:38;;;;;;;4.28;2.27;;;;;;;23.00;39.95;99577.84;1801422;78;21045;-64
2021/05/14 11:48:11;;;;;;;5.50;2.62;;;;;;;22.97;39.56;99579.63;1777355;79;21617;-68
2021/05/14 11:50:40;;;;;;;5.50;2.27;;;;;;;22.95;39.23;99585.20;1802916;78;21049;-67
2021/05/14 11:53:08;;;;;;;7.85;2.00;;;;;;;22.98;39.80;99571.86;1779785;78;21104;-66
2021/05/14 11:55:37;;;;;;;4.37;2.00;;;;;;;22.99;38.81;99581.55;1801258;78;21068;-66